createdAt,value
2023-02-02T00:01:29.113Z,13.60
2023-02-02T00:04:36.029Z,18.57
2023-02-02T00:07:39.631Z,13.07
2023-02-02T00:10:45.262Z,20.67
2023-02-02T00:13:49.032Z,18.53
2023-02-02T00:16:54.439Z,15.63
2023-02-02T00:19:58.056Z,14.90
2023-02-02T00:23:02.290Z,13.27
2023-02-02T00:26:07.325Z,25.20
2023-02-02T00:29:18.615Z,15.63
2023-02-02T00:32:22.306Z,19.20
2023-02-02T00:35:26.207Z,16.80
2023-02-02T00:38:29.910Z,15.90
2023-02-02T00:41:35.088Z,21.47
2023-02-02T00:44:56.400Z,20.63
2023-02-02T00:48:00.116Z,14.47
2023-02-02T00:51:03.742Z,23.03
2023-02-02T00:54:07.711Z,15.83
2023-02-02T00:57:15.003Z,17.37
2023-02-02T01:00:23.874Z,16.83
2023-02-02T01:03:27.485Z,15.57
2023-02-02T01:06:31.226Z,16.70
2023-02-02T01:09:34.832Z,19.17
2023-02-02T01:12:39.917Z,15.50
2023-02-02T01:15:43.525Z,19.80
2023-02-02T01:18:47.152Z,24.73
2023-02-02T01:21:51.257Z,17.20
2023-02-02T01:24:54.859Z,13.87
2023-02-02T01:27:59.840Z,21.03
2023-02-02T01:31:09.345Z,13.00
2023-02-02T01:34:13.024Z,13.53
2023-02-02T01:37:16.658Z,18.30
2023-02-02T01:40:20.784Z,15.47
2023-02-02T01:43:28.340Z,19.17
2023-02-02T01:46:34.108Z,22.57
2023-02-02T01:49:39.221Z,16.63
2023-02-02T01:52:46.751Z,12.70
2023-02-02T01:55:52.151Z,17.93
2023-02-02T01:58:59.094Z,20.67
2023-02-02T02:02:04.260Z,17.87
2023-02-02T02:05:10.381Z,21.10
2023-02-02T02:08:20.082Z,12.47
2023-02-02T02:11:25.652Z,14.87
2023-02-02T02:14:48.153Z,20.87
2023-02-02T02:18:07.309Z,13.93
2023-02-02T02:21:58.997Z,26.07
2023-02-02T02:26:05.647Z,21.80
2023-02-02T02:30:01.187Z,14.83
2023-02-02T02:33:14.692Z,16.43
2023-02-02T02:36:32.133Z,22.57
2023-02-02T02:39:44.088Z,18.93
2023-02-02T02:42:55.960Z,17.33
2023-02-02T02:46:00.290Z,17.43
2023-02-02T02:49:08.904Z,12.27
2023-02-02T02:52:12.516Z,22.00
2023-02-02T02:55:16.729Z,24.53
2023-02-02T02:58:30.179Z,27.30
2023-02-02T03:01:44.039Z,16.97
2023-02-02T03:05:07.386Z,15.03
2023-02-02T03:08:18.600Z,15.77
2023-02-02T03:11:23.223Z,12.40
2023-02-02T03:14:27.052Z,12.57
2023-02-02T03:17:30.761Z,17.57
2023-02-02T03:20:36.219Z,13.53
2023-02-02T03:23:40.117Z,14.17
2023-02-02T03:26:44.184Z,18.13
2023-02-02T03:29:47.872Z,18.73
2023-02-02T03:32:53.288Z,19.07
2023-02-02T03:35:58.363Z,14.23
2023-02-02T03:39:01.912Z,20.57
2023-02-02T03:42:05.814Z,14.23
2023-02-02T03:45:30.251Z,14.43
2023-02-02T03:48:38.074Z,23.57
2023-02-02T03:51:44.409Z,19.07
2023-02-02T03:54:48.033Z,11.80
2023-02-02T03:57:51.943Z,27.03
2023-02-02T04:00:56.050Z,16.47
2023-02-02T04:04:00.774Z,25.47
2023-02-02T04:07:06.683Z,18.37
2023-02-02T04:10:12.206Z,13.30
2023-02-02T04:13:15.856Z,22.53
2023-02-02T04:16:19.517Z,21.50
2023-02-02T04:19:23.317Z,18.00
2023-02-02T04:22:28.461Z,12.67
2023-02-02T04:25:32.173Z,16.50
2023-02-02T04:28:35.643Z,20.67
2023-02-02T04:31:39.335Z,19.83
2023-02-02T04:34:43.225Z,25.67
2023-02-02T04:37:48.237Z,19.37
2023-02-02T04:40:51.822Z,16.03
2023-02-02T04:43:55.476Z,15.50
2023-02-02T04:46:59.198Z,20.47
2023-02-02T04:50:02.938Z,14.07
2023-02-02T04:53:07.997Z,16.73
2023-02-02T04:56:15.345Z,16.33
2023-02-02T04:59:19.059Z,25.83
2023-02-02T05:02:22.730Z,17.00
2023-02-02T05:05:26.681Z,18.23
2023-02-02T05:08:32.249Z,15.60
2023-02-02T05:11:36.285Z,20.53
2023-02-02T05:14:39.920Z,15.80
2023-02-02T05:17:43.620Z,25.03
2023-02-02T05:20:47.267Z,15.17
2023-02-02T05:23:52.593Z,19.47
2023-02-02T05:27:00.443Z,16.20
2023-02-02T05:30:04.425Z,20.83
2023-02-02T05:33:08.053Z,16.73
2023-02-02T05:36:12.605Z,20.70
2023-02-02T05:39:17.755Z,16.03
2023-02-02T05:42:21.371Z,21.43
2023-02-02T05:45:25.682Z,24.43
2023-02-02T05:48:29.939Z,21.87
2023-02-02T05:51:39.305Z,16.90
2023-02-02T05:54:44.325Z,19.47
2023-02-02T05:57:47.938Z,25.83
2023-02-02T06:00:51.596Z,22.30
2023-02-02T06:03:55.175Z,19.43
2023-02-02T06:06:58.808Z,27.87
2023-02-02T06:10:03.979Z,19.63
2023-02-02T06:13:07.620Z,14.40
2023-02-02T06:16:11.288Z,21.30
2023-02-02T06:19:14.911Z,22.23
2023-02-02T06:22:18.561Z,18.10
2023-02-02T06:25:23.876Z,16.90
2023-02-02T06:28:27.770Z,21.10
2023-02-02T06:31:31.476Z,17.43
2023-02-02T06:34:35.348Z,25.63
2023-02-02T06:37:39.404Z,17.40
2023-02-02T06:40:44.349Z,14.57
2023-02-02T06:43:48.050Z,26.30
2023-02-02T06:46:51.698Z,16.83
2023-02-02T06:49:55.391Z,19.80
2023-02-02T06:52:59.054Z,17.77
2023-02-02T06:56:07.423Z,28.60
2023-02-02T06:59:11.341Z,27.33
2023-02-02T07:02:15.569Z,20.27
2023-02-02T07:05:21.512Z,24.10
2023-02-02T07:08:25.366Z,28.40
2023-02-02T07:11:30.784Z,19.77
2023-02-02T07:14:34.931Z,24.80
2023-02-02T07:17:38.612Z,20.03
2023-02-02T07:20:42.287Z,22.23
2023-02-02T07:23:46.270Z,28.80
2023-02-02T07:26:51.472Z,27.37
2023-02-02T07:29:55.096Z,21.23
2023-02-02T07:32:58.992Z,15.97
2023-02-02T07:36:03.864Z,18.50
2023-02-02T07:39:08.172Z,21.97
2023-02-02T07:42:14.420Z,26.27
2023-02-02T07:45:24.534Z,22.50
2023-02-02T07:48:31.874Z,20.07
2023-02-02T07:51:37.906Z,21.90
2023-02-02T07:54:42.434Z,23.40
2023-02-02T07:57:47.677Z,23.07
2023-02-02T08:00:51.393Z,22.50
2023-02-02T08:03:57.200Z,23.50
2023-02-02T08:07:01.528Z,17.50
2023-02-02T08:10:05.402Z,22.97
2023-02-02T08:13:10.506Z,27.77
2023-02-02T08:16:14.251Z,18.50
2023-02-02T08:19:17.914Z,23.77
2023-02-02T08:22:21.570Z,20.27
2023-02-02T08:25:25.572Z,18.70
2023-02-02T08:28:30.779Z,17.97
2023-02-02T08:31:36.994Z,21.47
2023-02-02T08:34:41.066Z,19.80
2023-02-02T08:37:44.820Z,19.40
2023-02-02T08:40:48.390Z,17.90
2023-02-02T08:43:53.567Z,20.47
2023-02-02T08:46:57.468Z,24.23
2023-02-02T08:50:01.100Z,24.60
2023-02-02T08:53:04.740Z,19.53
2023-02-02T08:56:13.145Z,25.97
2023-02-02T08:59:18.192Z,22.47
2023-02-02T09:02:22.493Z,26.93
2023-02-02T09:05:26.423Z,20.03
2023-02-02T09:08:30.387Z,27.60
2023-02-02T09:11:34.216Z,22.00
2023-02-02T09:14:39.313Z,22.00
2023-02-02T09:17:42.928Z,23.27
2023-02-02T09:20:46.576Z,22.23
2023-02-02T09:23:53.705Z,22.83
2023-02-02T09:26:58.246Z,19.60
2023-02-02T09:30:03.341Z,18.37
2023-02-02T09:33:06.912Z,19.43
2023-02-02T09:36:14.149Z,19.37
2023-02-02T09:39:19.550Z,20.77
2023-02-02T09:42:55.847Z,20.57
2023-02-02T09:46:19.044Z,15.83
2023-02-02T09:49:34.134Z,19.03
2023-02-02T09:52:45.182Z,20.30
2023-02-02T09:55:52.868Z,26.00
2023-02-02T09:59:13.798Z,21.13
2023-02-02T10:02:31.327Z,16.57
2023-02-02T10:05:48.316Z,18.23
2023-02-02T10:08:57.511Z,19.73
2023-02-02T10:12:07.902Z,16.90
2023-02-02T10:15:24.432Z,16.57
2023-02-02T10:18:42.058Z,21.70
2023-02-02T10:21:56.121Z,16.73
2023-02-02T10:25:00.138Z,17.70
2023-02-02T10:28:13.037Z,17.40
2023-02-02T10:31:36.006Z,18.57
2023-02-02T10:34:46.835Z,13.77
2023-02-02T10:38:02.892Z,13.43
2023-02-02T10:41:22.538Z,18.80
2023-02-02T10:44:38.226Z,18.48
2023-02-02T10:47:42.028Z,21.63
2023-02-02T10:50:53.030Z,19.83
2023-02-02T10:54:01.326Z,12.73
2023-02-02T10:57:10.133Z,20.63
2023-02-02T11:00:23.971Z,14.30
2023-02-02T11:03:32.259Z,20.83
2023-02-02T11:06:52.091Z,19.73
2023-02-02T11:09:55.665Z,16.87
2023-02-02T11:13:02.293Z,17.07
2023-02-02T11:16:32.693Z,16.73
2023-02-02T11:19:43.026Z,16.83
2023-02-02T11:22:48.366Z,19.77
2023-02-02T11:26:05.581Z,23.87
2023-02-02T11:29:17.741Z,15.97
2023-02-02T11:32:28.594Z,16.00
2023-02-02T11:35:32.424Z,16.83
2023-02-02T11:38:37.490Z,18.27
2023-02-02T11:41:42.169Z,18.30
2023-02-02T11:44:51.370Z,17.00
2023-02-02T11:47:55.107Z,12.53
2023-02-02T11:51:02.510Z,14.37
2023-02-02T11:54:18.119Z,15.73
2023-02-02T11:57:25.707Z,12.40
2023-02-02T12:00:30.547Z,11.77
2023-02-02T12:03:38.449Z,10.93
2023-02-02T12:06:42.660Z,16.27
2023-02-02T12:09:48.696Z,14.40
2023-02-02T12:13:05.329Z,11.20
2023-02-02T12:16:38.183Z,16.87
2023-02-02T12:20:24.121Z,14.57
2023-02-02T12:23:58.975Z,12.17
2023-02-02T12:27:22.893Z,15.97
2023-02-02T12:30:42.796Z,15.47
2023-02-02T12:33:59.951Z,17.90
2023-02-02T12:37:19.614Z,13.47
2023-02-02T12:40:48.059Z,14.97
2023-02-02T12:44:07.413Z,11.53
2023-02-02T12:47:23.988Z,19.73
2023-02-02T12:50:39.396Z,11.77
2023-02-02T12:54:32.600Z,13.37
2023-02-02T12:57:54.301Z,15.37
2023-02-02T13:01:38.890Z,12.07
2023-02-02T13:04:59.740Z,19.80
2023-02-02T13:08:10.037Z,18.00
2023-02-02T13:11:31.032Z,15.43
2023-02-02T13:14:42.894Z,17.93
2023-02-02T13:17:54.896Z,20.67
2023-02-02T13:21:04.541Z,20.80
2023-02-02T13:24:16.602Z,20.00
2023-02-02T13:27:22.893Z,13.03
2023-02-02T13:30:35.156Z,19.03
2023-02-02T13:33:42.887Z,14.33
2023-02-02T13:36:55.840Z,17.93
2023-02-02T13:40:04.832Z,17.67
2023-02-02T13:43:30.250Z,24.20
2023-02-02T13:46:46.806Z,21.83
2023-02-02T13:49:57.804Z,15.37
2023-02-02T13:53:43.272Z,15.73
2023-02-02T13:56:59.677Z,18.37
2023-02-02T14:00:16.617Z,12.17
2023-02-02T14:03:38.407Z,16.83
2023-02-02T14:06:59.610Z,18.17
2023-02-02T14:10:04.503Z,15.17
2023-02-02T14:13:39.086Z,12.00
2023-02-02T14:16:51.127Z,15.60
2023-02-02T14:19:57.401Z,15.07
2023-02-02T14:23:02.449Z,13.07
2023-02-02T14:26:10.076Z,11.97
2023-02-02T14:30:00.003Z,14.80
2023-02-02T14:33:28.298Z,12.60
2023-02-02T14:36:33.296Z,12.27
2023-02-02T14:39:55.987Z,15.63
2023-02-02T14:43:41.351Z,16.80
2023-02-02T14:46:49.225Z,16.07
2023-02-02T14:49:59.451Z,13.60
2023-02-02T14:53:09.357Z,11.33
2023-02-02T14:56:17.180Z,15.07
2023-02-02T14:59:26.019Z,7.83
2023-02-02T15:02:35.958Z,16.90
2023-02-02T15:05:46.437Z,9.00
2023-02-02T15:09:41.416Z,9.93
2023-02-02T15:12:50.374Z,12.60
2023-02-02T15:16:07.654Z,14.57
2023-02-02T15:19:33.459Z,11.10
2023-02-02T15:22:44.842Z,8.17
2023-02-02T15:25:54.572Z,16.30
2023-02-02T15:29:03.978Z,14.30
2023-02-02T15:32:15.045Z,9.30
2023-02-02T15:35:24.751Z,8.37
2023-02-02T15:38:42.355Z,13.70
2023-02-02T15:41:47.512Z,16.77
2023-02-02T15:44:52.480Z,9.63
2023-02-02T15:47:57.216Z,7.00
2023-02-02T15:51:04.656Z,11.27
2023-02-02T15:54:24.608Z,12.37
2023-02-02T15:57:33.147Z,14.23
2023-02-02T16:00:39.289Z,11.63
2023-02-02T16:03:53.789Z,9.70
2023-02-02T16:06:58.660Z,12.87
2023-02-02T16:10:09.053Z,12.93
2023-02-02T16:13:27.421Z,9.10
2023-02-02T16:16:35.330Z,8.17
2023-02-02T16:19:42.930Z,12.53
2023-02-02T16:22:47.720Z,13.00
2023-02-02T16:25:55.791Z,10.80
2023-02-02T16:28:59.923Z,15.63
2023-02-02T16:32:05.764Z,7.80
2023-02-02T16:35:34.046Z,11.20
2023-02-02T16:38:39.626Z,11.30
2023-02-02T16:41:45.059Z,13.90
2023-02-02T16:44:48.925Z,14.23
2023-02-02T16:47:54.944Z,12.43
2023-02-02T16:51:21.672Z,12.13
2023-02-02T16:54:25.707Z,9.03
2023-02-02T16:57:34.211Z,11.93
2023-02-02T17:00:39.065Z,6.40
2023-02-02T17:03:54.270Z,12.03
2023-02-02T17:07:09.175Z,10.67
2023-02-02T17:10:25.732Z,14.33
2023-02-02T17:13:43.561Z,7.47
2023-02-02T17:16:47.321Z,11.03
2023-02-02T17:19:52.501Z,9.67
2023-02-02T17:23:01.647Z,10.53
2023-02-02T17:26:08.322Z,7.63
2023-02-02T17:29:25.479Z,14.30
2023-02-02T17:32:29.323Z,13.23
2023-02-02T17:35:51.491Z,8.60
2023-02-02T17:38:57.108Z,8.63
2023-02-02T17:42:01.442Z,9.03
2023-02-02T17:45:05.583Z,9.27
2023-02-02T17:48:13.751Z,9.80
2023-02-02T17:51:18.956Z,6.87
2023-02-02T17:54:22.700Z,10.70
2023-02-02T17:57:26.296Z,6.83
2023-02-02T18:00:31.626Z,9.27
2023-02-02T18:03:39.061Z,12.00
2023-02-02T18:06:43.998Z,8.93
2023-02-02T18:09:47.668Z,12.13
2023-02-02T18:12:51.644Z,9.30
2023-02-02T18:15:56.358Z,13.17
2023-02-02T18:19:02.797Z,10.17
2023-02-02T18:22:08.102Z,9.03
2023-02-02T18:25:12.128Z,10.27
2023-02-02T18:28:17.971Z,8.07
2023-02-02T18:31:24.333Z,7.90
2023-02-02T18:34:31.933Z,10.33
2023-02-02T18:37:37.053Z,7.70
2023-02-02T18:40:40.723Z,12.53
2023-02-02T18:43:45.824Z,13.07
2023-02-02T18:46:49.788Z,11.03
2023-02-02T18:49:53.551Z,6.73
2023-02-02T18:52:58.732Z,9.93
2023-02-02T18:56:06.703Z,7.13
2023-02-02T18:59:11.052Z,10.43
2023-02-02T19:02:17.447Z,8.93
2023-02-02T19:05:38.798Z,9.60
2023-02-02T19:08:45.008Z,7.80
2023-02-02T19:11:51.607Z,12.67
2023-02-02T19:14:55.173Z,10.73
2023-02-02T19:17:58.818Z,14.67
2023-02-02T19:21:02.484Z,10.53
2023-02-02T19:24:13.890Z,7.37
2023-02-02T19:27:21.087Z,11.27
2023-02-02T19:30:25.652Z,12.77
2023-02-02T19:33:42.809Z,11.73
2023-02-02T19:36:49.471Z,17.57
2023-02-02T19:40:02.889Z,14.50
2023-02-02T19:43:24.631Z,15.87
2023-02-02T19:46:31.223Z,8.93
2023-02-02T19:49:37.897Z,11.13
2023-02-02T19:52:42.884Z,11.90
2023-02-02T19:55:48.590Z,10.63
2023-02-02T19:58:52.806Z,9.57
2023-02-02T20:01:56.645Z,10.17
2023-02-02T20:05:08.079Z,14.57
2023-02-02T20:08:25.325Z,12.17
2023-02-02T20:11:36.755Z,12.57
2023-02-02T20:14:40.460Z,15.67
2023-02-02T20:17:44.166Z,14.00
2023-02-02T20:20:53.414Z,12.73
2023-02-02T20:23:57.194Z,16.90
2023-02-02T20:27:14.890Z,12.93
2023-02-02T20:30:24.334Z,17.00
2023-02-02T20:33:28.263Z,13.13
2023-02-02T20:36:39.091Z,13.37
2023-02-02T20:39:48.371Z,12.70
2023-02-02T20:42:53.427Z,12.90
2023-02-02T20:45:57.186Z,15.13
2023-02-02T20:49:00.845Z,16.07
2023-02-02T20:52:10.786Z,18.40
2023-02-02T20:55:14.681Z,15.43
2023-02-02T20:58:21.934Z,13.40
2023-02-02T21:01:26.262Z,15.63
2023-02-02T21:04:30.097Z,19.33
2023-02-02T21:07:34.069Z,15.40
2023-02-02T21:10:37.787Z,18.13
2023-02-02T21:13:43.020Z,17.63
2023-02-02T21:16:48.190Z,18.33
2023-02-02T21:19:52.316Z,17.87
2023-02-02T21:22:56.793Z,19.33
2023-02-02T21:26:00.505Z,19.53
2023-02-02T21:29:05.674Z,19.27
2023-02-02T21:32:09.563Z,17.57
2023-02-02T21:35:14.333Z,18.80
2023-02-02T21:38:18.890Z,17.57
2023-02-02T21:41:23.034Z,20.87
2023-02-02T21:44:28.579Z,21.17
2023-02-02T21:47:37.104Z,25.60
2023-02-02T21:50:43.270Z,24.10
2023-02-02T21:53:46.977Z,25.17
2023-02-02T21:56:52.116Z,23.70
2023-02-02T21:59:58.494Z,25.00
2023-02-02T22:03:02.460Z,28.60
2023-02-02T22:06:29.363Z,27.10
2023-02-02T22:09:41.858Z,27.57
2023-02-02T22:12:45.500Z,26.93
2023-02-02T22:15:52.714Z,30.50
2023-02-02T22:18:56.925Z,25.73
2023-02-02T22:22:19.828Z,26.20
2023-02-02T22:25:34.267Z,21.77
2023-02-02T22:28:41.365Z,23.37
2023-02-02T22:31:46.420Z,22.17
2023-02-02T22:34:50.185Z,25.77
2023-02-02T22:37:53.897Z,25.03
2023-02-02T22:40:57.623Z,25.50
2023-02-02T22:44:01.394Z,26.83
2023-02-02T22:47:06.665Z,25.53
2023-02-02T22:50:11.459Z,29.63
2023-02-02T22:53:15.660Z,30.63
2023-02-02T22:56:19.321Z,22.63
2023-02-02T22:59:22.945Z,21.17
2023-02-02T23:02:28.179Z,25.37
2023-02-02T23:05:31.989Z,22.80
2023-02-02T23:08:35.702Z,23.57
2023-02-02T23:11:39.532Z,22.37
2023-02-02T23:14:43.149Z,19.77
2023-02-02T23:17:48.218Z,20.47
2023-02-02T23:20:51.804Z,21.57
2023-02-02T23:23:55.930Z,18.13
2023-02-02T23:26:59.562Z,20.70
2023-02-02T23:30:03.251Z,15.93
2023-02-02T23:33:08.233Z,21.87
2023-02-02T23:36:13.036Z,16.47
2023-02-02T23:39:16.700Z,15.20
2023-02-02T23:42:20.516Z,18.93
2023-02-02T23:45:36.178Z,18.93
2023-02-02T23:48:41.417Z,16.03
2023-02-02T23:51:45.345Z,15.47
2023-02-02T23:54:49.405Z,23.87
2023-02-02T23:57:53.197Z,17.67
